Time;durP1;ratioP1;P1;durP2;ratioP2;P2;SDS_P1;SDS_P2;PMS_P1;PMS_P2;Temp;Humidity;BMP_temperature;BMP_pressure;BME280_temperature;BME280_humidity;BME280_pressure;Samples;Min_cycle;Max_cycle;Signal;HPM_P1;HPM_P2
2023/12/06 00:01:13;;;;;;;84.00;75.20;;;;;;;-3.05;90.17;97617.40;109604;1290;22213;-82
2023/12/06 00:03:42;;;;;;;90.10;78.20;;;;;;;-3.00;90.42;97614.75;109578;1290;22386;-82
2023/12/06 00:06:10;;;;;;;98.10;77.70;;;;;;;-2.95;90.59;97615.88;109610;1290;22110;-83
2023/12/06 00:08:38;;;;;;;138.50;94.40;;;;;;;-2.88;90.72;97618.41;109628;1283;22338;-83
2023/12/06 00:11:06;;;;;;;136.50;93.70;;;;;;;-2.89;90.39;97616.44;109582;1283;22900;-83
2023/12/06 00:13:34;;;;;;;124.70;89.10;;;;;;;-2.90;90.02;97620.73;109597;1282;22200;-81
2023/12/06 00:16:02;;;;;;;117.70;85.90;;;;;;;-2.88;90.32;97618.48;109457;1285;23009;-88
2023/12/06 00:18:31;;;;;;;106.10;82.90;;;;;;;-2.84;90.37;97615.77;109527;1286;22258;-87
2023/12/06 00:20:59;;;;;;;109.80;84.30;;;;;;;-2.82;90.30;97615.74;109616;1290;22915;-91
2023/12/06 00:23:27;;;;;;;96.50;83.10;;;;;;;-2.78;90.80;97611.27;109669;1284;22969;-84
2023/12/06 00:25:55;;;;;;;99.30;83.20;;;;;;;-2.76;90.97;97601.80;109624;1282;22254;-87
2023/12/06 00:28:24;;;;;;;108.00;85.80;;;;;;;-2.78;90.48;97596.71;109606;1282;22315;-85
2023/12/06 00:30:52;;;;;;;106.30;85.70;;;;;;;-2.83;90.61;97588.78;109604;1282;22379;-83
2023/12/06 00:33:22;;;;;;;110.10;88.50;;;;;;;-2.83;90.80;97587.02;109569;1283;22399;-81
2023/12/06 00:35:52;;;;;;;103.90;85.00;;;;;;;-2.83;90.92;97579.92;109609;1283;22167;-84
2023/12/06 00:38:20;;;;;;;99.70;81.10;;;;;;;-2.81;90.74;97576.73;109589;1282;22263;-84
2023/12/06 00:40:49;;;;;;;90.00;76.40;;;;;;;-2.77;90.63;97574.55;109531;1285;22203;-83
2023/12/06 00:43:17;;;;;;;84.40;75.70;;;;;;;-2.74;90.51;97566.03;109594;1290;22476;-82
2023/12/06 00:45:45;;;;;;;95.00;76.70;;;;;;;-2.74;90.94;97569.00;109617;1290;22211;-83
2023/12/06 00:48:14;;;;;;;93.90;78.60;;;;;;;-2.76;90.84;97567.77;109694;1289;22156;-84
2023/12/06 00:50:43;;;;;;;113.10;84.10;;;;;;;-2.77;91.06;97566.31;109607;1284;22408;-85
2023/12/06 00:53:11;;;;;;;108.10;85.60;;;;;;;-2.77;91.30;97569.58;109691;1290;22256;-85
2023/12/06 00:55:43;;;;;;;95.80;77.20;;;;;;;-2.77;91.39;97571.81;109674;1289;22159;-85
2023/12/06 00:58:11;;;;;;;94.00;77.30;;;;;;;-2.76;91.02;97574.86;109817;1290;22224;-84
2023/12/06 01:00:39;;;;;;;88.00;77.70;;;;;;;-2.74;91.10;97573.26;109725;1290;22231;-83
2023/12/06 01:03:08;;;;;;;91.50;78.10;;;;;;;-2.68;91.23;97572.74;109654;1290;23040;-85
2023/12/06 01:05:36;;;;;;;102.20;83.80;;;;;;;-2.61;91.34;97571.56;109609;1290;22192;-84
2023/12/06 01:08:04;;;;;;;139.60;93.30;;;;;;;-2.52;91.78;97567.27;109498;1286;22332;-84
2023/12/06 01:10:34;;;;;;;145.40;96.30;;;;;;;-2.46;91.73;97564.95;109605;1290;22195;-83
2023/12/06 01:13:02;;;;;;;122.60;91.50;;;;;;;-2.46;91.41;97568.41;109590;1290;22224;-83
2023/12/06 01:15:30;;;;;;;121.10;86.40;;;;;;;-2.49;91.57;97565.59;109513;1279;22681;-83
2023/12/06 01:17:58;;;;;;;138.70;94.30;;;;;;;-2.48;91.51;97567.33;109454;1290;201974;-83
2023/12/06 01:20:26;;;;;;;142.80;91.90;;;;;;;-2.45;91.35;97568.67;109611;1290;22121;-82
2023/12/06 01:22:55;;;;;;;132.20;88.00;;;;;;;-2.36;91.86;97570.65;109607;1267;22200;-84
2023/12/06 01:25:22;;;;;;;148.00;94.10;;;;;;;-2.26;91.89;97568.75;109592;1274;22375;-83
2023/12/06 01:27:51;;;;;;;136.90;93.60;;;;;;;-2.18;92.07;97571.48;109592;1290;22223;-87
2023/12/06 01:30:19;;;;;;;137.90;92.80;;;;;;;-2.13;92.17;97571.81;109663;1276;22142;-85
2023/12/06 01:32:47;;;;;;;133.30;92.10;;;;;;;-2.11;92.24;97567.19;109581;1282;22990;-87
2023/12/06 01:35:16;;;;;;;131.40;93.80;;;;;;;-2.08;92.09;97563.83;109588;1290;22277;-82
2023/12/06 01:37:43;;;;;;;134.00;92.80;;;;;;;-2.09;91.93;97559.67;109569;1283;22357;-83
2023/12/06 01:40:12;;;;;;;128.50;88.70;;;;;;;-2.09;92.20;97558.50;109482;1289;22214;-84
2023/12/06 01:42:40;;;;;;;120.50;85.30;;;;;;;-2.03;92.31;97556.39;109549;1290;22249;-83
2023/12/06 01:45:08;;;;;;;104.10;82.10;;;;;;;-1.96;92.15;97557.14;109577;1290;22397;-84
2023/12/06 01:47:37;;;;;;;130.20;87.20;;;;;;;-1.90;92.13;97558.60;109580;1279;22227;-84
2023/12/06 01:50:07;;;;;;;125.60;88.80;;;;;;;-1.89;91.83;97559.84;109535;1286;22193;-85
2023/12/06 01:52:36;;;;;;;129.80;90.40;;;;;;;-1.95;91.76;97555.01;109474;1288;22237;-84
2023/12/06 01:55:05;;;;;;;164.30;102.60;;;;;;;-2.02;91.78;97557.80;109599;1283;22230;-84
2023/12/06 01:57:35;;;;;;;143.80;97.60;;;;;;;-2.09;91.93;97557.73;109581;1284;22187;-82
2023/12/06 02:00:04;;;;;;;139.80;94.10;;;;;;;-2.13;91.89;97561.58;109607;1283;22196;-84
2023/12/06 02:02:38;;;;;;;144.00;96.00;;;;;;;-2.21;92.06;97562.38;109593;1279;22871;-81
2023/12/06 02:05:07;;;;;;;144.40;93.30;;;;;;;-2.22;91.96;97562.45;109566;1283;22138;-82
2023/12/06 02:07:36;;;;;;;135.90;90.30;;;;;;;-2.21;91.98;97560.15;109582;1283;22216;-83
2023/12/06 02:10:04;;;;;;;126.70;87.30;;;;;;;-2.21;91.99;97553.94;109588;1290;22855;-83
2023/12/06 02:12:32;;;;;;;134.40;90.00;;;;;;;-2.17;92.22;97557.00;109569;1276;22241;-84
2023/12/06 02:15:01;;;;;;;135.50;93.50;;;;;;;-2.17;92.02;97553.23;109549;1290;23069;-83
2023/12/06 02:17:30;;;;;;;131.40;91.90;;;;;;;-2.21;91.98;97557.48;109581;1290;23423;-82
2023/12/06 02:20:05;;;;;;;129.60;91.90;;;;;;;-2.28;92.36;97557.86;109607;1286;22250;-83
2023/12/06 02:22:34;;;;;;;134.90;92.60;;;;;;;-2.33;92.22;97563.20;109758;1290;21934;-83
2023/12/06 02:25:05;;;;;;;120.40;87.10;;;;;;;-2.36;92.39;97563.69;109713;1277;22828;-83
2023/12/06 02:31:42;;;;;;;121.70;89.10;;;;;;;-2.28;92.42;97561.83;109608;1283;22200;-83
2023/12/06 02:34:16;;;;;;;109.20;86.20;;;;;;;-2.27;92.35;97558.24;109533;1286;22971;-82
2023/12/06 02:36:48;;;;;;;134.60;93.40;;;;;;;-2.30;92.49;97556.70;109553;1290;22373;-83
2023/12/06 02:39:17;;;;;;;147.80;98.90;;;;;;;-2.33;92.46;97554.10;109557;1290;22255;-83
2023/12/06 02:41:45;;;;;;;127.50;96.80;;;;;;;-2.35;93.01;97552.42;109546;1290;22180;-83
2023/12/06 02:44:14;;;;;;;113.80;88.70;;;;;;;-2.34;92.94;97550.34;109553;1290;22313;-84
2023/12/06 02:46:44;;;;;;;122.30;90.50;;;;;;;-2.31;92.88;97549.73;109568;1290;22220;-84
2023/12/06 02:49:12;;;;;;;109.10;87.10;;;;;;;-2.28;92.59;97552.37;109577;1286;22354;-83
2023/12/06 02:51:40;;;;;;;123.80;89.50;;;;;;;-2.24;92.69;97553.73;109564;1287;22233;-83
2023/12/06 02:54:08;;;;;;;116.90;89.10;;;;;;;-2.20;92.84;97553.37;109564;1286;22332;-83
2023/12/06 02:56:36;;;;;;;102.30;87.70;;;;;;;-2.16;93.16;97553.46;109587;1283;23007;-81
2023/12/06 02:59:04;;;;;;;114.70;85.60;;;;;;;-2.13;93.57;97546.06;109608;1287;22147;-83
2023/12/06 03:01:33;;;;;;;115.20;87.90;;;;;;;-2.11;93.32;97547.39;109564;1283;22877;-82
2023/12/06 03:04:01;;;;;;;117.50;87.10;;;;;;;-2.13;93.15;97550.45;109599;1286;22357;-83
2023/12/06 03:06:29;;;;;;;115.90;87.90;;;;;;;-2.15;92.98;97549.90;109558;1290;22256;-83
2023/12/06 03:09:02;;;;;;;106.40;84.60;;;;;;;-2.11;93.11;97552.02;109565;1287;22128;-83
2023/12/06 03:11:30;;;;;;;105.60;87.70;;;;;;;-2.05;93.11;97551.70;109584;1279;22292;-83
2023/12/06 03:13:59;;;;;;;115.80;87.60;;;;;;;-2.02;93.13;97554.67;109597;1283;22118;-83
2023/12/06 03:16:27;;;;;;;115.80;88.90;;;;;;;-2.09;92.80;97560.90;109566;1275;22237;-83
2023/12/06 03:18:55;;;;;;;124.30;91.40;;;;;;;-2.20;92.66;97563.34;109580;1279;22145;-83
2023/12/06 03:21:23;;;;;;;126.20;92.90;;;;;;;-2.28;92.89;97566.13;109595;1286;22420;-81
2023/12/06 03:23:51;;;;;;;136.30;92.00;;;;;;;-2.36;93.30;97564.58;109566;1290;23014;-84
2023/12/06 03:26:19;;;;;;;116.90;86.70;;;;;;;-2.36;93.12;97562.66;109572;1282;22360;-84
2023/12/06 03:28:47;;;;;;;110.10;84.10;;;;;;;-2.33;93.38;97560.52;109610;1290;22231;-84
2023/12/06 03:31:15;;;;;;;96.80;80.30;;;;;;;-2.24;93.31;97561.73;109618;1282;22396;-83
2023/12/06 03:33:43;;;;;;;116.70;87.10;;;;;;;-2.20;93.17;97559.61;109516;1280;22152;-84
2023/12/06 03:36:12;;;;;;;140.00;95.70;;;;;;;-2.21;93.18;97563.97;109749;1282;22230;-84
2023/12/06 03:38:40;;;;;;;161.80;107.20;;;;;;;-2.27;93.13;97565.19;109587;1286;22852;-82
2023/12/06 03:41:08;;;;;;;157.50;102.30;;;;;;;-2.33;93.47;97560.39;109601;1277;22208;-83
2023/12/06 03:43:37;;;;;;;154.30;100.40;;;;;;;-2.40;93.46;97557.36;109565;1290;22688;-83
2023/12/06 03:46:08;;;;;;;160.30;106.00;;;;;;;-2.41;93.91;97557.42;109599;1284;22401;-84
2023/12/06 03:48:36;;;;;;;147.70;97.40;;;;;;;-2.42;93.72;97554.34;109604;1290;22317;-83
2023/12/06 03:51:04;;;;;;;155.30;98.70;;;;;;;-2.39;93.66;97557.83;109577;1279;22202;-85
2023/12/06 03:53:32;;;;;;;137.00;90.10;;;;;;;-2.42;93.20;97560.73;109556;1290;22668;-84
2023/12/06 03:56:00;;;;;;;124.60;91.10;;;;;;;-2.39;93.48;97564.38;109564;1290;22261;-83
2023/12/06 03:58:28;;;;;;;127.20;90.30;;;;;;;-2.37;93.49;97564.06;109561;1283;22243;-84
2023/12/06 04:00:56;;;;;;;145.00;99.80;;;;;;;-2.37;93.78;97557.36;109596;1280;22323;-84
2023/12/06 04:03:24;;;;;;;145.30;101.60;;;;;;;-2.35;93.69;97560.59;109585;1284;22842;-85
2023/12/06 04:05:53;;;;;;;140.50;98.50;;;;;;;-2.38;93.59;97556.45;109619;1290;22118;-84
2023/12/06 04:08:21;;;;;;;127.60;95.50;;;;;;;-2.41;93.58;97554.62;109521;1290;22223;-85
2023/12/06 04:10:49;;;;;;;128.40;91.50;;;;;;;-2.44;93.59;97555.46;109714;1290;22269;-85
2023/12/06 04:13:17;;;;;;;117.30;89.60;;;;;;;-2.42;93.66;97551.66;109595;1290;22290;-83
2023/12/06 04:15:45;;;;;;;102.40;85.20;;;;;;;-2.38;93.59;97550.80;109553;1286;22207;-84
2023/12/06 04:18:13;;;;;;;94.30;83.90;;;;;;;-2.37;93.46;97550.88;109577;1287;22188;-84
2023/12/06 04:20:41;;;;;;;99.40;86.70;;;;;;;-2.34;93.47;97551.27;109599;1290;22352;-84
2023/12/06 04:23:10;;;;;;;110.90;90.60;;;;;;;-2.35;93.24;97552.95;109466;1287;23144;-83
2023/12/06 04:25:38;;;;;;;109.40;88.10;;;;;;;-2.38;93.37;97548.85;109588;1279;22947;-83
2023/12/06 04:28:07;;;;;;;123.50;95.20;;;;;;;-2.38;93.79;97551.45;109595;1289;22141;-83
2023/12/06 04:30:35;;;;;;;116.60;92.90;;;;;;;-2.35;93.86;97552.47;109598;1290;23080;-81
2023/12/06 04:33:03;;;;;;;110.10;90.20;;;;;;;-2.35;93.93;97557.17;109654;1283;22128;-84
2023/12/06 04:35:31;;;;;;;118.90;89.60;;;;;;;-2.40;93.73;97562.52;109592;1290;22681;-83
2023/12/06 04:37:59;;;;;;;90.40;80.50;;;;;;;-2.39;93.50;97569.98;109553;1279;22114;-83
2023/12/06 04:40:27;;;;;;;91.50;79.70;;;;;;;-2.44;93.33;97571.86;109608;1289;22262;-82
2023/12/06 04:42:55;;;;;;;92.80;82.50;;;;;;;-2.42;93.58;97568.84;109590;1283;22187;-82
2023/12/06 04:45:23;;;;;;;103.70;84.60;;;;;;;-2.41;93.60;97569.87;109609;1276;22714;-83
2023/12/06 04:47:51;;;;;;;106.70;86.60;;;;;;;-2.45;93.53;97567.35;109586;1287;22172;-84
2023/12/06 04:50:19;;;;;;;116.50;90.20;;;;;;;-2.54;93.48;97569.43;109591;1279;22135;-83
2023/12/06 04:52:47;;;;;;;105.40;90.90;;;;;;;-2.60;93.53;97576.39;109559;1290;22233;-83
2023/12/06 04:55:15;;;;;;;115.20;90.40;;;;;;;-2.65;93.83;97578.52;109634;1276;22362;-82
2023/12/06 04:57:43;;;;;;;113.30;89.80;;;;;;;-2.67;93.68;97578.62;109605;1283;22430;-82
2023/12/06 05:00:12;;;;;;;100.60;86.00;;;;;;;-2.63;93.96;97579.29;109590;1286;22181;-83
2023/12/06 05:02:40;;;;;;;106.70;87.80;;;;;;;-2.60;93.96;97574.54;109604;1290;22126;-83
2023/12/06 05:05:09;;;;;;;107.80;89.70;;;;;;;-2.58;94.11;97574.84;109580;1284;22206;-82
2023/12/06 05:07:37;;;;;;;114.00;89.60;;;;;;;-2.60;94.06;97570.73;109609;1282;22255;-84
2023/12/06 05:10:06;;;;;;;115.10;90.20;;;;;;;-2.65;94.22;97570.91;109550;1278;22352;-84
2023/12/06 05:12:35;;;;;;;105.90;84.60;;;;;;;-2.66;94.21;97571.30;109600;1283;22205;-84
2023/12/06 05:15:04;;;;;;;111.10;85.20;;;;;;;-2.67;94.03;97573.99;109595;1290;22569;-83
2023/12/06 05:17:32;;;;;;;102.80;83.50;;;;;;;-2.67;94.03;97569.00;109581;1286;22221;-83
2023/12/06 05:20:00;;;;;;;96.80;83.20;;;;;;;-2.61;94.20;97571.92;109601;1290;22757;-84
2023/12/06 05:22:28;;;;;;;94.40;79.50;;;;;;;-2.55;94.37;97572.08;109604;1283;22246;-84
2023/12/06 05:25:06;;;;;;;89.70;76.70;;;;;;;-2.46;94.57;97573.40;109615;1286;22196;-85
2023/12/06 05:27:34;;;;;;;96.40;81.70;;;;;;;-2.42;94.59;97577.08;109611;1290;22238;-83
2023/12/06 05:30:02;;;;;;;97.50;81.60;;;;;;;-2.41;94.31;97580.42;109587;1276;22122;-83
2023/12/06 05:32:30;;;;;;;99.50;84.50;;;;;;;-2.45;94.13;97584.66;109651;1290;22787;-83
2023/12/06 05:34:58;;;;;;;115.50;93.60;;;;;;;-2.50;94.29;97591.38;109617;1286;22251;-83
2023/12/06 05:37:28;;;;;;;95.30;82.40;;;;;;;-2.55;94.54;97582.60;109607;1290;22184;-82
2023/12/06 05:39:56;;;;;;;110.80;86.20;;;;;;;-2.50;94.29;97587.23;109625;1279;22252;-84
2023/12/06 05:42:24;;;;;;;99.50;78.70;;;;;;;-2.46;94.45;97591.63;109603;1275;22179;-84
2023/12/06 05:44:53;;;;;;;93.50;81.20;;;;;;;-2.43;94.54;97593.41;109605;1288;22234;-82
2023/12/06 05:47:21;;;;;;;88.10;78.90;;;;;;;-2.45;94.59;97592.83;109592;1275;22226;-82
2023/12/06 05:49:50;;;;;;;99.40;81.10;;;;;;;-2.45;94.51;97594.48;109499;1291;22970;-83
2023/12/06 05:52:18;;;;;;;91.80;79.40;;;;;;;-2.45;94.82;97595.31;109442;1282;22347;-85
2023/12/06 05:54:46;;;;;;;91.20;81.50;;;;;;;-2.49;94.86;97597.66;109603;1290;22197;-86
2023/12/06 05:57:14;;;;;;;102.10;83.10;;;;;;;-2.52;94.95;97598.07;109609;1286;22196;-85
2023/12/06 05:59:43;;;;;;;104.00;85.80;;;;;;;-2.53;94.94;97601.45;109598;1283;22295;-85
2023/12/06 06:02:11;;;;;;;107.40;89.00;;;;;;;-2.51;94.55;97597.11;109472;1289;23097;-85
2023/12/06 06:04:39;;;;;;;105.00;87.60;;;;;;;-2.46;94.70;97593.61;109602;1283;22205;-84
2023/12/06 06:07:07;;;;;;;115.60;89.40;;;;;;;-2.42;94.86;97590.59;109538;1290;22286;-85
2023/12/06 06:09:35;;;;;;;115.00;89.40;;;;;;;-2.41;94.85;97589.04;109585;1282;22333;-84
2023/12/06 06:12:07;;;;;;;104.90;86.60;;;;;;;-2.41;95.00;97588.77;109601;1286;22700;-84
2023/12/06 06:14:35;;;;;;;105.10;84.60;;;;;;;-2.44;94.85;97587.95;109606;1286;22226;-83
2023/12/06 06:17:03;;;;;;;108.20;82.90;;;;;;;-2.52;94.92;97587.23;109551;1286;22240;-84
2023/12/06 06:19:31;;;;;;;94.60;83.80;;;;;;;-2.53;95.08;97593.25;109608;1279;22368;-83
2023/12/06 06:21:59;;;;;;;106.40;85.20;;;;;;;-2.52;95.06;97592.55;109581;1284;22212;-84
2023/12/06 06:24:27;;;;;;;121.30;90.70;;;;;;;-2.50;95.03;97591.55;109597;1286;22136;-83
2023/12/06 06:26:55;;;;;;;127.00;94.60;;;;;;;-2.45;95.18;97591.30;109583;1276;22780;-83
2023/12/06 06:29:23;;;;;;;156.80;114.40;;;;;;;-2.43;95.23;97594.05;109578;1290;22213;-83
2023/12/06 06:31:51;;;;;;;142.60;103.30;;;;;;;-2.42;95.17;97595.83;109590;1286;22098;-82
2023/12/06 06:34:20;;;;;;;144.40;103.60;;;;;;;-2.38;95.32;97598.29;109614;1282;22907;-83
2023/12/06 06:36:48;;;;;;;136.00;98.70;;;;;;;-2.39;95.26;97600.90;109590;1290;22829;-83
2023/12/06 06:39:16;;;;;;;134.80;94.20;;;;;;;-2.35;95.30;97605.48;109431;1283;22303;-82
2023/12/06 06:41:44;;;;;;;139.10;96.60;;;;;;;-2.30;95.15;97603.05;109583;1290;22136;-83
2023/12/06 06:44:12;;;;;;;147.10;103.60;;;;;;;-2.25;94.81;97602.96;109581;1276;22179;-83
2023/12/06 06:46:40;;;;;;;154.60;106.40;;;;;;;-2.25;94.79;97609.81;109597;1290;22241;-83
2023/12/06 06:49:08;;;;;;;164.80;113.00;;;;;;;-2.27;95.08;97608.34;109524;1285;22942;-83
2023/12/06 06:51:37;;;;;;;173.20;121.50;;;;;;;-2.27;95.16;97609.67;109601;1282;22230;-84
2023/12/06 06:54:07;;;;;;;162.30;114.30;;;;;;;-2.28;95.46;97604.41;109609;1287;22140;-85
2023/12/06 06:56:36;;;;;;;164.80;112.00;;;;;;;-2.31;95.07;97610.23;109431;1285;22207;-83
2023/12/06 06:59:12;;;;;;;144.50;101.20;;;;;;;-2.34;95.00;97605.91;109530;1283;22270;-84
2023/12/06 07:01:40;;;;;;;147.50;104.00;;;;;;;-2.33;95.05;97611.80;109549;1289;23486;-82
2023/12/06 07:04:10;;;;;;;169.00;112.90;;;;;;;-2.31;95.15;97614.32;109500;1283;22164;-84
2023/12/06 07:06:39;;;;;;;170.80;112.50;;;;;;;-2.28;95.41;97617.04;109542;1282;22169;-84
2023/12/06 07:09:08;;;;;;;167.00;109.80;;;;;;;-2.26;95.59;97619.05;109465;1290;22171;-83
2023/12/06 07:11:36;;;;;;;173.90;116.50;;;;;;;-2.24;95.76;97610.86;109585;1290;22993;-83
2023/12/06 07:14:04;;;;;;;168.70;110.20;;;;;;;-2.17;95.87;97614.39;109475;1277;22193;-84
2023/12/06 07:16:32;;;;;;;149.30;99.70;;;;;;;-2.14;95.71;97616.90;109607;1282;22254;-82
2023/12/06 07:19:00;;;;;;;140.50;98.90;;;;;;;-2.13;95.35;97621.12;109612;1282;22237;-82
2023/12/06 07:21:28;;;;;;;130.90;95.80;;;;;;;-2.10;95.31;97618.88;109598;1290;22170;-83
2023/12/06 07:23:57;;;;;;;135.60;99.00;;;;;;;-2.04;95.31;97618.04;109604;1290;22230;-84
2023/12/06 07:26:51;;;;;;;114.20;92.60;;;;;;;-1.99;95.72;97610.77;109611;1290;22205;-84
2023/12/06 07:29:19;;;;;;;112.40;89.40;;;;;;;-1.87;95.72;97614.94;109600;1283;22114;-82
2023/12/06 07:31:47;;;;;;;122.60;95.20;;;;;;;-1.81;95.74;97616.02;109453;1283;22199;-82
2023/12/06 07:34:17;;;;;;;123.90;95.10;;;;;;;-1.81;95.62;97611.85;109575;1290;22221;-84
2023/12/06 07:36:50;;;;;;;135.50;97.20;;;;;;;-1.76;95.94;97607.59;109604;1290;22390;-82
2023/12/06 07:39:19;;;;;;;122.80;93.50;;;;;;;-1.66;95.83;97605.25;109592;1283;22150;-84
2023/12/06 07:41:48;;;;;;;112.80;91.30;;;;;;;-1.59;95.39;97599.15;109584;1283;22878;-83
2023/12/06 07:44:17;;;;;;;114.80;92.90;;;;;;;-1.56;95.37;97600.96;109567;1282;22373;-83
2023/12/06 07:46:45;;;;;;;100.60;84.90;;;;;;;-1.54;95.55;97603.42;109439;1285;22239;-84
2023/12/06 07:49:15;;;;;;;117.20;89.80;;;;;;;-1.54;95.50;97605.33;109418;1276;22883;-84
2023/12/06 07:51:43;;;;;;;106.80;88.30;;;;;;;-1.55;95.52;97605.27;109458;1284;22237;-84
2023/12/06 07:54:11;;;;;;;107.20;90.00;;;;;;;-1.57;95.62;97604.37;109479;1286;22360;-85
2023/12/06 07:56:40;;;;;;;119.60;91.70;;;;;;;-1.57;95.99;97602.98;109566;1285;22102;-84
2023/12/06 07:59:08;;;;;;;107.20;88.10;;;;;;;-1.49;95.81;97602.61;109346;1292;22171;-85
2023/12/06 08:01:36;;;;;;;120.60;90.80;;;;;;;-1.41;95.88;97599.94;109455;1292;22753;-84
2023/12/06 08:04:05;;;;;;;114.70;90.50;;;;;;;-1.30;95.85;97596.60;109466;1292;22122;-84
2023/12/06 08:06:34;;;;;;;99.00;83.00;;;;;;;-1.23;95.96;97594.80;109467;1292;22255;-83
2023/12/06 08:09:10;;;;;;;102.10;83.00;;;;;;;-1.19;95.94;97592.66;109440;1292;22651;-86
2023/12/06 08:11:39;;;;;;;98.10;85.60;;;;;;;-1.14;95.93;97587.75;109508;1292;22149;-82
2023/12/06 08:14:07;;;;;;;103.30;88.40;;;;;;;-1.05;95.86;97588.10;109642;1292;22240;-83
2023/12/06 08:16:35;;;;;;;99.70;84.20;;;;;;;-1.02;95.71;97583.14;109368;1291;23062;-82
2023/12/06 08:19:03;;;;;;;106.50;85.50;;;;;;;-0.99;95.73;97579.41;109449;1285;22136;-85
2023/12/06 08:21:31;;;;;;;113.20;87.80;;;;;;;-0.96;95.65;97577.20;109465;1286;22303;-85
2023/12/06 08:24:02;;;;;;;107.00;87.00;;;;;;;-0.91;95.53;97580.20;109466;1289;22154;-83
2023/12/06 08:26:30;;;;;;;107.20;84.90;;;;;;;-0.83;95.64;97580.38;109682;1291;22214;-84
2023/12/06 08:29:00;;;;;;;103.00;85.10;;;;;;;-0.70;95.90;97579.15;109542;1292;22143;-84
2023/12/06 08:31:29;;;;;;;105.50;88.50;;;;;;;-0.51;96.41;97581.00;109451;1292;22110;-85
2023/12/06 08:33:57;;;;;;;101.70;85.70;;;;;;;-0.35;96.36;97578.30;109387;1292;22159;-84
2023/12/06 08:36:33;;;;;;;99.30;85.80;;;;;;;-0.25;95.99;97581.76;109408;1286;22282;-83
2023/12/06 08:39:01;;;;;;;96.30;84.50;;;;;;;-0.19;95.76;97581.14;109257;1286;22938;-82
2023/12/06 08:41:29;;;;;;;101.00;86.20;;;;;;;-0.15;95.63;97587.45;109364;1292;22983;-83
2023/12/06 08:43:57;;;;;;;101.30;83.40;;;;;;;-0.11;95.77;97586.21;109412;1286;22291;-83
2023/12/06 08:46:25;;;;;;;89.80;79.00;;;;;;;-0.10;95.40;97589.30;109557;1290;22219;-83
2023/12/06 08:48:54;;;;;;;83.80;75.10;;;;;;;-0.06;95.60;97590.67;109624;1290;22472;-84
2023/12/06 08:51:22;;;;;;;82.30;73.50;;;;;;;0.08;95.90;97596.45;109459;1283;22237;-82
2023/12/06 08:53:50;;;;;;;103.70;85.80;;;;;;;0.22;95.67;97595.73;109572;1284;23067;-81
2023/12/06 08:56:18;;;;;;;113.50;93.20;;;;;;;0.31;95.74;97592.12;109575;1290;22222;-83
2023/12/06 08:58:46;;;;;;;114.60;90.90;;;;;;;0.37;95.32;97589.52;109577;1283;22201;-83
2023/12/06 09:01:15;;;;;;;114.30;88.30;;;;;;;0.44;95.70;97596.90;109597;1290;22204;-84
2023/12/06 09:03:43;;;;;;;94.00;82.30;;;;;;;0.56;95.96;97599.31;109590;1290;22274;-84
2023/12/06 09:06:11;;;;;;;87.20;77.80;;;;;;;0.60;95.29;97603.98;109593;1279;22888;-83
2023/12/06 09:08:39;;;;;;;104.10;83.50;;;;;;;0.55;94.82;97604.86;109569;1283;22374;-83
2023/12/06 09:11:07;;;;;;;99.60;83.60;;;;;;;0.56;94.93;97606.46;109461;1290;22287;-82
2023/12/06 09:13:35;;;;;;;87.80;76.70;;;;;;;0.56;95.06;97606.73;109579;1276;22226;-82
2023/12/06 09:16:04;;;;;;;85.80;75.90;;;;;;;0.58;94.73;97603.46;109597;1290;22196;-82
2023/12/06 09:18:32;;;;;;;81.40;71.30;;;;;;;0.67;95.01;97607.55;109555;1290;22219;-82
2023/12/06 09:21:00;;;;;;;78.90;70.60;;;;;;;0.74;94.60;97603.83;109600;1284;22251;-82
2023/12/06 09:23:28;;;;;;;81.30;73.00;;;;;;;0.85;94.41;97606.17;109575;1282;22205;-82
2023/12/06 09:25:56;;;;;;;84.50;75.10;;;;;;;0.87;93.66;97604.02;109558;1274;22380;-82
2023/12/06 09:28:25;;;;;;;84.70;76.10;;;;;;;0.89;94.11;97607.45;109578;1283;22238;-83
2023/12/06 09:30:53;;;;;;;85.10;76.50;;;;;;;0.93;93.79;97603.09;109588;1290;22957;-83
2023/12/06 09:33:22;;;;;;;89.40;79.50;;;;;;;0.95;93.31;97600.21;109567;1283;22462;-83
2023/12/06 09:35:51;;;;;;;82.20;74.00;;;;;;;0.93;92.51;97604.30;109569;1290;22215;-83
2023/12/06 09:38:19;;;;;;;82.40;74.00;;;;;;;0.93;93.00;97606.95;109584;1290;22985;-83
2023/12/06 09:40:48;;;;;;;77.90;69.40;;;;;;;0.94;92.94;97601.51;109492;1283;22342;-83
2023/12/06 09:43:18;;;;;;;74.70;67.40;;;;;;;0.87;91.71;97602.16;109629;1282;22108;-83
2023/12/06 09:45:47;;;;;;;76.70;68.90;;;;;;;0.74;91.01;97604.36;109625;1290;22220;-84
2023/12/06 09:48:15;;;;;;;74.90;67.60;;;;;;;0.62;90.76;97608.09;109595;1282;22845;-82
2023/12/06 09:50:43;;;;;;;73.80;66.30;;;;;;;0.53;91.36;97604.77;109608;1290;22186;-84
2023/12/06 09:53:11;;;;;;;70.40;63.50;;;;;;;0.54;91.32;97608.50;109620;1290;22141;-84
2023/12/06 09:56:08;;;;;;;70.30;63.30;;;;;;;0.55;91.20;97610.84;109615;1283;22162;-84
2023/12/06 09:58:36;;;;;;;68.00;61.70;;;;;;;0.48;90.83;97606.65;109603;1283;22282;-84
2023/12/06 10:01:04;;;;;;;69.20;62.70;;;;;;;0.44;91.14;97601.19;109612;1290;22571;-81
2023/12/06 10:03:34;;;;;;;72.20;65.30;;;;;;;0.46;91.44;97603.70;109595;1283;22234;-82
2023/12/06 10:06:03;;;;;;;75.90;68.90;;;;;;;0.45;90.48;97595.86;109604;1283;22214;-83
2023/12/06 10:08:33;;;;;;;76.60;68.90;;;;;;;0.40;90.29;97594.39;109573;1290;22367;-84
2023/12/06 10:11:04;;;;;;;75.20;67.50;;;;;;;0.39;90.20;97597.03;109605;1290;22228;-83
2023/12/06 10:13:37;;;;;;;75.50;68.20;;;;;;;0.35;89.59;97597.91;109600;1289;23053;-84
2023/12/06 10:16:16;;;;;;;77.30;69.20;;;;;;;0.29;89.59;97600.52;109484;1290;22236;-84
2023/12/06 10:18:48;;;;;;;76.70;68.60;;;;;;;0.26;89.56;97598.08;109570;1290;22128;-84
2023/12/06 10:21:20;;;;;;;76.40;68.70;;;;;;;0.20;89.26;97594.44;109584;1290;22276;-86
2023/12/06 10:23:57;;;;;;;79.40;71.70;;;;;;;0.14;88.94;97598.30;109385;1290;22256;-85
2023/12/06 10:26:31;;;;;;;81.20;72.60;;;;;;;0.03;88.74;97595.89;109599;1283;22889;-84
2023/12/06 10:29:00;;;;;;;82.00;73.50;;;;;;;-0.07;88.74;97593.95;109601;1289;22147;-84
2023/12/06 10:31:37;;;;;;;84.60;75.80;;;;;;;-0.15;88.40;97597.10;109583;1289;22162;-84
2023/12/06 10:34:05;;;;;;;87.20;77.90;;;;;;;-0.22;88.65;97602.35;109602;1290;22226;-85
2023/12/06 10:36:37;;;;;;;84.50;75.50;;;;;;;-0.30;88.60;97602.59;109595;1276;22164;-83
2023/12/06 10:39:10;;;;;;;81.50;73.20;;;;;;;-0.30;88.53;97600.44;109607;1283;22224;-84
2023/12/06 10:41:41;;;;;;;77.20;69.60;;;;;;;-0.29;88.77;97600.50;109594;1276;22302;-84
2023/12/06 10:44:10;;;;;;;83.10;74.50;;;;;;;-0.25;89.02;97597.49;109322;1290;22908;-83
2023/12/06 10:46:38;;;;;;;83.80;75.30;;;;;;;-0.22;89.26;97596.02;109533;1290;22235;-85
2023/12/06 10:49:08;;;;;;;83.70;75.30;;;;;;;-0.21;88.92;97595.08;109638;1290;22931;-83
2023/12/06 10:51:38;;;;;;;85.10;76.70;;;;;;;-0.28;88.75;97590.83;109792;1290;22240;-82
2023/12/06 10:54:07;;;;;;;86.40;76.00;;;;;;;-0.29;88.95;97588.58;109615;1280;23026;-84
2023/12/06 10:56:38;;;;;;;89.20;79.50;;;;;;;-0.31;88.93;97586.58;109617;1276;22295;-82
2023/12/06 10:59:06;;;;;;;94.30;82.00;;;;;;;-0.23;90.02;97586.46;109597;1290;22937;-83
2023/12/06 11:01:35;;;;;;;88.50;79.10;;;;;;;-0.12;89.38;97588.37;109552;1290;23060;-86
2023/12/06 11:04:05;;;;;;;85.60;76.60;;;;;;;-0.10;89.13;97585.05;109607;1277;23018;-83
2023/12/06 11:06:58;;;;;;;84.40;75.80;;;;;;;-0.09;89.35;97588.14;109609;1279;22232;-83
2023/12/06 11:09:40;;;;;;;78.90;71.00;;;;;;;-0.01;89.33;97582.83;109567;1282;22214;-83
2023/12/06 11:12:24;;;;;;;79.30;71.70;;;;;;;0.04;89.21;97582.45;109625;1290;22958;-83
2023/12/06 11:15:11;;;;;;;86.00;76.80;;;;;;;-0.01;89.13;97586.66;109554;1290;22125;-84
2023/12/06 11:17:51;;;;;;;87.10;77.80;;;;;;;-0.09;88.86;97585.52;109606;1290;22231;-84